Pays
Station

 

Conditions  météo  pour  Qingdao  -  Chine    Chine

  
21 °C
    
 
 

METAR pour Qingdao :

ZSQD 260100Z 22003MPS 200V260 7000 NSC 21/07 Q1013 NOSIG

 

Voici le bulletin pour Qingdao - Chine.
 
Le bulletin a été fait il y a 51 minutes, à 01:00 UTC .
Le vent soufflait à la vitesse de 3 mètres par seconde de Sud-ouest (220°), variant entre Sud/Sud-ouest (200°) et Ouest (260°).
 
La température était de 21 °C, avec un point de rosée à 7 °C.
La pression atmosphérique était de 1013 hPa.
L'humidité relative était de 40.3%.
 
La visibilité globale était de 7.0 kilomètres.
 

 
 
 

Pays :   A   B   C   D   E   F   G   H   I   J   K   L   M   N   O   P   Q   R   S   T   U   V   W   Y   Z

 

Partenaires :  Info Météo avec Met'info
Météo Marine avec MeteoMarine.net
Infos Site  |  Infos Légales  |  Crédits  |  Confidentialité
Contactez-nous  |  Ajouter aux favoris
© 2013-2018 METAR - Tous droits réservés